Time;durP1;ratioP1;P1;durP2;ratioP2;P2;SDS_P1;SDS_P2;PMS_P1;PMS_P2;Temp;Humidity;BMP_temperature;BMP_pressure;BME280_temperature;BME280_humidity;BME280_pressure;Samples;Min_cycle;Max_cycle;Signal;HPM_P1;HPM_P2
2022/09/29 00:00:40;;;;;;;4.20;2.42;;;7.70;99.90;;;;;;4250234;27;20540;-84
2022/09/29 00:02:42;;;;;;;4.38;2.35;;;7.90;99.90;;;;;;4250455;27;20398;-83
2022/09/29 00:04:43;;;;;;;3.97;2.10;;;8.40;99.90;;;;;;4232222;28;20085;-84
2022/09/29 00:06:43;;;;;;;6.57;2.70;;;7.70;99.90;;;;;;4231730;28;20468;-84
2022/09/29 00:08:45;;;;;;;5.45;2.70;;;7.90;99.90;;;;;;4231744;28;20119;-84
2022/09/29 00:10:46;;;;;;;3.90;2.20;;;7.60;99.90;;;;;;4235471;27;20048;-84
2022/09/29 00:12:47;;;;;;;4.18;2.25;;;7.60;99.90;;;;;;4233192;28;20407;-84
2022/09/29 00:14:47;;;;;;;5.53;2.70;;;7.60;99.90;;;;;;4233178;28;20457;-84
2022/09/29 00:16:48;;;;;;;3.28;2.28;;;7.60;99.90;;;;;;4214947;28;20047;-84
2022/09/29 00:18:52;;;;;;;4.85;2.50;;;7.20;99.90;;;;;;4233131;28;20119;-84
2022/09/29 00:21:14;;;;;;;3.55;2.33;;;7.60;99.90;;;;;;4215068;28;20044;-84
2022/09/29 00:23:14;;;;;;;5.22;2.63;;;7.60;99.90;;;;;;4232469;28;20044;-84
2022/09/29 00:25:15;;;;;;;4.47;2.20;;;7.60;99.90;;;;;;4215072;28;20062;-84
2022/09/29 00:27:17;;;;;;;5.13;2.53;;;7.50;99.90;;;;;;4219159;28;20442;-84
2022/09/29 00:29:17;;;;;;;3.78;2.40;;;7.50;99.90;;;;;;4249358;27;20092;-84
2022/09/29 00:31:19;;;;;;;3.08;2.28;;;7.50;99.90;;;;;;4250043;27;20047;-84
2022/09/29 00:33:20;;;;;;;3.88;2.35;;;7.90;99.90;;;;;;4231381;28;20407;-84
2022/09/29 00:35:20;;;;;;;3.80;2.40;;;7.90;99.90;;;;;;4231188;28;20044;-84
2022/09/29 00:37:21;;;;;;;4.70;2.60;;;7.40;99.90;;;;;;4249717;27;20043;-84
2022/09/29 00:39:22;;;;;;;7.22;2.80;;;7.50;99.90;;;;;;4249814;27;20044;-84
2022/09/29 00:41:25;;;;;;;4.78;2.38;;;7.50;99.90;;;;;;4249818;27;20043;-84
2022/09/29 00:43:59;;;;;;;6.97;2.72;;;7.50;99.90;;;;;;4248500;27;20122;-84
2022/09/29 00:46:01;;;;;;;4.50;2.60;;;7.50;99.90;;;;;;4216404;28;20115;-84
2022/09/29 00:48:16;;;;;;;5.45;2.70;;;7.70;99.90;;;;;;4232380;28;20127;-84
2022/09/29 00:50:29;;;;;;;7.35;3.42;;;7.40;99.90;;;;;;4232439;28;20070;-84
2022/09/29 00:52:38;;;;;;;4.85;3.30;;;7.50;99.90;;;;;;4232688;28;20082;-84
2022/09/29 00:54:46;;;;;;;5.97;2.38;;;7.40;99.90;;;;;;4232616;28;20048;-84
2022/09/29 00:56:49;;;;;;;3.17;2.15;;;7.40;99.90;;;;;;4232002;28;20132;-84
2022/09/29 00:58:55;;;;;;;4.47;2.42;;;7.80;99.90;;;;;;4231916;28;20047;-84
2022/09/29 01:00:57;;;;;;;6.78;2.50;;;7.40;99.90;;;;;;4214046;28;20543;-84
2022/09/29 01:03:07;;;;;;;5.30;2.67;;;7.50;99.90;;;;;;4245990;27;20411;-84
2022/09/29 01:05:17;;;;;;;5.50;2.85;;;7.30;99.90;;;;;;4249478;27;20035;-84
2022/09/29 01:07:23;;;;;;;4.15;2.70;;;7.50;99.90;;;;;;4249393;27;20039;-84
2022/09/29 01:09:31;;;;;;;5.25;2.88;;;7.30;99.90;;;;;;4248683;27;20104;-84
2022/09/29 01:11:32;;;;;;;4.15;3.13;;;7.30;99.90;;;;;;4249091;27;20089;-84
2022/09/29 01:13:34;;;;;;;5.68;2.70;;;7.20;99.90;;;;;;4230778;28;20040;-84
2022/09/29 01:15:35;;;;;;;3.33;2.70;;;7.70;99.90;;;;;;4230608;28;20044;-84
2022/09/29 01:17:36;;;;;;;4.57;2.75;;;7.30;99.90;;;;;;4213612;28;20382;-84
2022/09/29 01:20:14;;;;;;;4.43;2.60;;;7.40;99.90;;;;;;4237606;27;20082;-84
2022/09/29 01:23:09;;;;;;;4.47;3.05;;;7.20;99.90;;;;;;4214120;28;20056;-84
2022/09/29 01:25:28;;;;;;;9.38;3.50;;;7.20;99.90;;;;;;4164967;28;20046;-84
2022/09/29 01:27:56;;;;;;;7.70;3.53;;;7.20;99.90;;;;;;4221274;28;20131;-84
2022/09/29 01:30:12;;;;;;;6.93;2.88;;;7.20;99.90;;;;;;4231766;28;20047;-84
2022/09/29 01:32:46;;;;;;;6.55;2.97;;;7.20;99.90;;;;;;4231446;28;20105;-84
2022/09/29 01:34:50;;;;;;;7.80;3.20;;;7.20;99.90;;;;;;4185119;28;20126;-84
2022/09/29 01:37:15;;;;;;;7.18;3.47;;;7.20;99.90;;;;;;4213611;28;20058;-84
2022/09/29 01:39:40;;;;;;;5.13;3.22;;;7.20;99.90;;;;;;4231828;28;20554;-84
2022/09/29 01:41:56;;;;;;;4.68;3.53;;;7.20;99.90;;;;;;4230831;28;20047;-84
2022/09/29 01:44:27;;;;;;;5.15;3.28;;;7.20;99.90;;;;;;4231817;28;20050;-84
2022/09/29 01:47:04;;;;;;;3.97;2.97;;;7.10;99.90;;;;;;4231248;28;20399;-84
2022/09/29 01:49:06;;;;;;;6.38;3.33;;;7.10;99.90;;;;;;4227516;28;20108;-84
2022/09/29 01:51:14;;;;;;;4.68;3.47;;;7.60;99.90;;;;;;4231366;28;20581;-84
2022/09/29 01:53:20;;;;;;;6.20;3.80;;;7.40;99.90;;;;;;4237227;27;20031;-84
2022/09/29 01:55:25;;;;;;;5.90;3.67;;;7.10;99.90;;;;;;4230383;28;20051;-84
2022/09/29 01:57:35;;;;;;;6.30;3.40;;;7.10;99.90;;;;;;4247848;27;20039;-84
2022/09/29 01:59:48;;;;;;;5.97;3.25;;;7.10;99.90;;;;;;4229927;28;20057;-84
2022/09/29 02:01:53;;;;;;;8.65;4.15;;;7.10;99.90;;;;;;4248798;27;20106;-84
2022/09/29 02:04:02;;;;;;;7.22;3.45;;;7.10;99.90;;;;;;4248463;27;20039;-84
2022/09/29 02:06:09;;;;;;;6.63;3.80;;;7.20;99.90;;;;;;4230535;28;20035;-84
2022/09/29 02:08:31;;;;;;;8.02;4.93;;;7.20;99.90;;;;;;4248391;27;20054;-84
2022/09/29 02:10:37;;;;;;;7.95;4.18;;;7.10;99.90;;;;;;4243883;27;20067;-84
2022/09/29 02:12:41;;;;;;;6.68;4.10;;;7.10;99.90;;;;;;4231289;28;20051;-84
2022/09/29 02:14:45;;;;;;;5.53;3.83;;;7.10;99.90;;;;;;4231335;28;20074;-84
2022/09/29 02:16:57;;;;;;;6.25;3.85;;;7.20;99.90;;;;;;4230082;28;20055;-85
2022/09/29 02:19:06;;;;;;;9.00;3.95;;;7.30;99.90;;;;;;4231275;28;20553;-84
2022/09/29 02:21:08;;;;;;;6.72;3.97;;;7.20;99.90;;;;;;4213119;28;20050;-84
2022/09/29 02:23:09;;;;;;;6.43;4.30;;;7.10;99.90;;;;;;4212631;28;20136;-84
2022/09/29 02:25:14;;;;;;;9.07;4.60;;;7.10;99.90;;;;;;4213664;28;20051;-84
2022/09/29 02:27:14;;;;;;;7.63;5.05;;;7.60;99.90;;;;;;4223194;28;20051;-84
2022/09/29 02:29:17;;;;;;;6.95;4.43;;;7.10;99.90;;;;;;4248181;27;20039;-84
2022/09/29 02:31:19;;;;;;;7.40;4.72;;;7.10;99.90;;;;;;4230042;28;20052;-84
2022/09/29 02:33:21;;;;;;;8.23;4.32;;;7.40;99.90;;;;;;4248061;27;20045;-84
2022/09/29 02:35:28;;;;;;;7.45;4.75;;;7.10;99.90;;;;;;4248008;27;20505;-84
2022/09/29 02:37:28;;;;;;;8.07;4.28;;;7.20;99.90;;;;;;4247938;27;20439;-84
2022/09/29 02:39:47;;;;;;;7.45;4.45;;;7.50;99.90;;;;;;4229860;28;20100;-84
2022/09/29 02:42:07;;;;;;;;;;;7.40;99.90;;;;;;4248159;27;20047;-84
2022/09/29 02:44:16;;;;;;;7.72;4.20;;;7.10;99.90;;;;;;4228938;28;20422;-84
2022/09/29 02:46:42;;;;;;;7.55;4.68;;;7.00;99.90;;;;;;4230941;28;20043;-84
2022/09/29 02:49:18;;;;;;;8.88;4.45;;;7.00;99.90;;;;;;4191389;28;20048;-84
2022/09/29 02:51:51;;;;;;;6.75;4.53;;;7.00;99.90;;;;;;4197858;28;20442;-84
2022/09/29 02:54:25;;;;;;;7.03;4.50;;;7.00;99.90;;;;;;4216879;28;20132;-84
2022/09/29 02:57:01;;;;;;;8.55;4.57;;;7.00;99.90;;;;;;4230816;28;20069;-84
2022/09/29 02:59:08;;;;;;;7.60;4.85;;;7.00;99.90;;;;;;4230337;28;20058;-83
2022/09/29 03:01:09;;;;;;;8.43;4.82;;;7.00;99.90;;;;;;4211828;28;20099;-83
2022/09/29 03:03:10;;;;;;;8.88;5.07;;;7.00;99.90;;;;;;4212589;28;20056;-83
2022/09/29 03:05:18;;;;;;;8.50;5.18;;;7.10;99.90;;;;;;4230775;28;20483;-83
2022/09/29 03:07:23;;;;;;;9.48;5.65;;;7.00;99.90;;;;;;4230972;28;20058;-83
2022/09/29 03:09:24;;;;;;;8.95;4.85;;;7.00;99.90;;;;;;4195729;28;20059;-84
2022/09/29 03:11:26;;;;;;;6.90;4.85;;;7.00;99.90;;;;;;4230793;28;20585;-83
2022/09/29 03:13:27;;;;;;;8.18;5.07;;;7.50;99.90;;;;;;4212709;28;20063;-83
2022/09/29 03:15:28;;;;;;;8.70;5.00;;;7.20;99.90;;;;;;4230036;28;20400;-83
2022/09/29 03:17:30;;;;;;;12.45;5.13;;;6.90;99.90;;;;;;4230400;28;20047;-84
2022/09/29 03:19:33;;;;;;;11.95;5.22;;;6.90;99.90;;;;;;4212701;28;20063;-84
2022/09/29 03:21:37;;;;;;;7.18;4.90;;;6.90;99.90;;;;;;4242896;28;20046;-83
2022/09/29 03:23:38;;;;;;;9.38;4.95;;;6.90;99.90;;;;;;4228960;28;20039;-83
2022/09/29 03:25:39;;;;;;;10.07;4.55;;;6.90;99.90;;;;;;4247566;28;20027;-84
2022/09/29 03:27:41;;;;;;;7.03;4.63;;;7.30;99.90;;;;;;4247613;28;20487;-83
2022/09/29 03:29:41;;;;;;;5.90;4.35;;;7.00;99.90;;;;;;4247641;28;20047;-84
2022/09/29 03:31:43;;;;;;;7.80;5.03;;;7.00;99.90;;;;;;4246027;28;20039;-83
2022/09/29 03:33:45;;;;;;;7.85;4.93;;;7.20;99.90;;;;;;4230407;28;20082;-84
2022/09/29 03:35:45;;;;;;;9.43;5.07;;;6.80;99.90;;;;;;4229813;28;20491;-84
2022/09/29 03:37:47;;;;;;;8.70;5.25;;;7.00;99.90;;;;;;4230531;28;20082;-84
2022/09/29 03:39:48;;;;;;;12.60;5.20;;;6.80;99.90;;;;;;4230414;28;20047;-84
2022/09/29 03:41:49;;;;;;;11.15;5.47;;;6.90;99.90;;;;;;4230552;28;20110;-84
2022/09/29 03:43:49;;;;;;;8.73;5.72;;;6.70;99.90;;;;;;4230562;28;20070;-84
2022/09/29 03:45:52;;;;;;;7.80;4.68;;;7.30;99.90;;;;;;4230531;28;20039;-83
2022/09/29 03:47:53;;;;;;;9.38;5.93;;;6.70;99.90;;;;;;4229855;28;20475;-83
2022/09/29 03:49:54;;;;;;;8.02;4.97;;;6.70;99.90;;;;;;4211942;28;20046;-83
2022/09/29 03:51:55;;;;;;;7.68;4.72;;;6.70;99.90;;;;;;4213237;28;20503;-83
2022/09/29 03:53:56;;;;;;;8.77;5.03;;;6.60;99.90;;;;;;4213460;28;20484;-84
2022/09/29 03:55:57;;;;;;;7.90;5.10;;;6.70;99.90;;;;;;4213520;28;20098;-84
2022/09/29 03:57:57;;;;;;;7.32;4.95;;;6.70;99.90;;;;;;4211922;28;20087;-83
2022/09/29 03:59:59;;;;;;;9.23;5.00;;;6.70;99.90;;;;;;4213499;28;20040;-84
2022/09/29 04:02:00;;;;;;;8.32;5.20;;;6.70;99.90;;;;;;4213617;28;20047;-83
2022/09/29 04:04:00;;;;;;;7.88;5.00;;;6.70;99.90;;;;;;4213564;28;20122;-84
2022/09/29 04:06:01;;;;;;;8.55;5.22;;;6.60;99.90;;;;;;4216728;28;20069;-83
2022/09/29 04:08:02;;;;;;;11.82;5.53;;;7.10;99.90;;;;;;4215860;28;20488;-84
2022/09/29 04:10:03;;;;;;;10.60;5.70;;;6.60;99.90;;;;;;4216496;28;20435;-84
2022/09/29 04:12:03;;;;;;;10.15;5.18;;;6.60;99.90;;;;;;4215283;28;20469;-84
2022/09/29 04:14:04;;;;;;;7.72;4.70;;;6.60;99.90;;;;;;4216373;28;20551;-84
2022/09/29 04:16:05;;;;;;;11.00;5.65;;;6.90;99.90;;;;;;4216106;28;20040;-84
2022/09/29 04:18:06;;;;;;;9.57;5.82;;;7.00;99.90;;;;;;4216164;28;20040;-83
2022/09/29 04:20:07;;;;;;;12.75;5.80;;;6.70;99.90;;;;;;4215768;28;20451;-84
2022/09/29 04:22:08;;;;;;;12.65;5.90;;;6.50;99.90;;;;;;4223851;28;20046;-84
2022/09/29 04:24:09;;;;;;;9.40;5.40;;;6.90;99.90;;;;;;4233086;28;20054;-83
2022/09/29 04:26:09;;;;;;;9.10;5.03;;;6.50;99.90;;;;;;4231729;28;20190;-84
2022/09/29 04:28:12;;;;;;;8.27;4.90;;;6.60;99.90;;;;;;4233030;28;20116;-84
2022/09/29 04:30:13;;;;;;;10.98;5.57;;;6.90;99.90;;;;;;4232505;28;20400;-83
2022/09/29 04:32:13;;;;;;;9.43;5.60;;;6.50;99.90;;;;;;4233083;28;20036;-84
2022/09/29 04:34:15;;;;;;;11.50;5.30;;;7.10;99.90;;;;;;4231622;28;20127;-83
2022/09/29 04:36:16;;;;;;;10.45;5.90;;;6.50;99.90;;;;;;4231561;28;20042;-83
2022/09/29 04:38:20;;;;;;;10.07;6.30;;;6.50;99.90;;;;;;4233068;28;20440;-84
2022/09/29 04:40:22;;;;;;;10.48;5.95;;;6.50;99.90;;;;;;4218461;28;20070;-84
2022/09/29 04:42:24;;;;;;;10.70;5.90;;;6.50;99.90;;;;;;4214854;28;20051;-83
2022/09/29 04:44:25;;;;;;;10.20;6.20;;;6.40;99.90;;;;;;4215882;28;20055;-83
2022/09/29 04:46:25;;;;;;;10.45;6.28;;;6.50;99.90;;;;;;4217851;28;20593;-84
2022/09/29 04:48:27;;;;;;;9.45;6.22;;;6.70;99.90;;;;;;4219169;28;20044;-83
2022/09/29 04:50:28;;;;;;;13.05;6.72;;;6.40;99.90;;;;;;4230882;27;20054;-83
2022/09/29 04:52:29;;;;;;;12.18;5.63;;;6.40;99.90;;;;;;4248347;27;20415;-84
2022/09/29 04:54:33;;;;;;;10.43;5.07;;;6.40;99.90;;;;;;4245463;27;20966;-83
2022/09/29 04:56:34;;;;;;;9.77;5.63;;;6.30;99.90;;;;;;4231540;28;20120;-84
2022/09/29 04:58:36;;;;;;;11.15;5.50;;;6.70;99.90;;;;;;4249213;27;20471;-84
2022/09/29 05:00:36;;;;;;;9.20;5.07;;;6.30;99.90;;;;;;4247625;27;20039;-84
2022/09/29 05:02:37;;;;;;;9.40;5.03;;;6.70;99.90;;;;;;4234441;27;20046;-83
2022/09/29 05:04:38;;;;;;;9.57;5.72;;;6.60;99.90;;;;;;4238379;27;20050;-84
2022/09/29 05:06:39;;;;;;;9.10;5.65;;;6.20;99.90;;;;;;4252407;27;20483;-84
2022/09/29 05:08:41;;;;;;;9.98;5.65;;;6.30;99.90;;;;;;4244111;27;20052;-83
2022/09/29 05:10:41;;;;;;;8.32;5.40;;;6.30;99.90;;;;;;4232794;28;20083;-84
2022/09/29 05:12:48;;;;;;;16.15;7.40;;;6.30;99.90;;;;;;4232514;28;20046;-84
2022/09/29 05:14:49;;;;;;;10.60;6.15;;;6.20;99.90;;;;;;4232346;28;20479;-84
2022/09/29 05:16:50;;;;;;;10.50;6.13;;;6.40;99.90;;;;;;4232128;27;20115;-84
2022/09/29 05:18:52;;;;;;;9.48;5.78;;;6.70;99.90;;;;;;4232420;28;20043;-84
2022/09/29 05:20:52;;;;;;;12.43;6.07;;;6.40;99.90;;;;;;4239167;27;20057;-84
2022/09/29 05:22:53;;;;;;;10.85;5.97;;;6.50;99.90;;;;;;4230782;28;20044;-84
2022/09/29 05:24:54;;;;;;;11.73;6.75;;;6.30;99.90;;;;;;4248857;27;20095;-84
2022/09/29 05:26:55;;;;;;;13.45;6.88;;;6.80;99.90;;;;;;4230613;28;20051;-84
2022/09/29 05:28:58;;;;;;;13.65;6.93;;;6.60;99.90;;;;;;4249242;27;20069;-83
2022/09/29 05:31:03;;;;;;;11.27;6.50;;;6.30;99.90;;;;;;4249362;27;20047;-84
2022/09/29 05:33:04;;;;;;;12.45;6.88;;;6.30;99.90;;;;;;4249269;27;20475;-84
2022/09/29 05:35:06;;;;;;;13.90;6.50;;;6.90;99.90;;;;;;4241403;27;20100;-83
2022/09/29 05:37:07;;;;;;;14.80;6.20;;;6.30;99.90;;;;;;4237868;27;20050;-84
2022/09/29 05:39:08;;;;;;;11.15;6.95;;;6.70;99.90;;;;;;4247448;27;20043;-83
2022/09/29 05:41:11;;;;;;;13.13;7.10;;;6.30;99.90;;;;;;4249140;27;20428;-84
2022/09/29 05:43:11;;;;;;;11.30;5.97;;;6.30;99.90;;;;;;4249020;27;20051;-84
2022/09/29 05:45:12;;;;;;;10.30;5.97;;;6.30;99.90;;;;;;4248897;27;20387;-84
2022/09/29 05:47:13;;;;;;;12.48;6.55;;;6.40;99.90;;;;;;4246985;27;20050;-84
2022/09/29 05:49:13;;;;;;;15.90;6.72;;;6.40;99.90;;;;;;4213121;28;20044;-84
2022/09/29 05:51:17;;;;;;;13.88;6.30;;;6.90;99.90;;;;;;4247861;27;20055;-84
2022/09/29 05:53:18;;;;;;;12.10;6.82;;;6.40;99.90;;;;;;4221389;28;20066;-84
2022/09/29 05:55:19;;;;;;;10.98;6.78;;;6.40;99.90;;;;;;4231354;28;20031;-84
2022/09/29 05:57:19;;;;;;;11.15;6.07;;;6.40;99.90;;;;;;4231683;28;20492;-84
2022/09/29 05:59:23;;;;;;;11.77;6.82;;;6.80;99.90;;;;;;4213115;28;20051;-84
2022/09/29 06:01:26;;;;;;;12.35;6.75;;;6.40;99.90;;;;;;4231818;28;20092;-84
2022/09/29 06:03:27;;;;;;;12.27;6.75;;;6.50;99.90;;;;;;4231981;28;20074;-84
2022/09/29 06:05:28;;;;;;;10.45;6.43;;;6.50;99.90;;;;;;4231994;28;20103;-84
2022/09/29 06:07:29;;;;;;;9.20;5.75;;;6.50;99.90;;;;;;4231477;28;20096;-84
2022/09/29 06:09:32;;;;;;;14.07;6.10;;;6.50;99.90;;;;;;4231298;28;20051;-84
2022/09/29 06:11:32;;;;;;;13.00;6.60;;;6.40;99.90;;;;;;4246905;27;20054;-83
2022/09/29 06:13:36;;;;;;;9.15;5.82;;;7.00;99.90;;;;;;4230200;28;20044;-84
2022/09/29 06:15:37;;;;;;;11.70;7.00;;;6.40;99.90;;;;;;4248070;27;20050;-83
2022/09/29 06:17:37;;;;;;;12.55;7.20;;;6.50;99.90;;;;;;4248243;27;20550;-84
2022/09/29 06:19:38;;;;;;;11.85;6.75;;;6.50;99.90;;;;;;4229853;28;20086;-84
2022/09/29 06:21:40;;;;;;;15.15;7.28;;;6.50;99.90;;;;;;4229396;28;20047;-84
2022/09/29 06:23:40;;;;;;;13.32;6.75;;;6.50;99.90;;;;;;4229976;28;20102;-84
2022/09/29 06:25:41;;;;;;;11.80;7.03;;;6.60;99.90;;;;;;4247991;27;20046;-86
2022/09/29 06:27:42;;;;;;;12.18;7.07;;;6.60;99.90;;;;;;4246203;27;20042;-85
2022/09/29 06:29:42;;;;;;;12.07;6.65;;;6.30;99.90;;;;;;4230636;28;20075;-85
2022/09/29 06:31:44;;;;;;;9.68;5.30;;;6.70;99.90;;;;;;4230979;28;20050;-84
2022/09/29 06:33:46;;;;;;;8.98;6.28;;;6.70;99.90;;;;;;4230773;28;20100;-84
2022/09/29 06:38:07;;;;;;;13.93;5.55;;;7.00;99.90;;;;;;4231212;28;20051;-84
2022/09/29 06:40:10;;;;;;;8.65;5.45;;;6.80;99.90;;;;;;4226575;27;20092;-84
2022/09/29 06:42:11;;;;;;;8.65;5.47;;;6.80;99.90;;;;;;4247550;27;20042;-85
2022/09/29 06:44:12;;;;;;;9.15;5.28;;;6.80;99.90;;;;;;4248881;27;20040;-87
2022/09/29 06:46:12;;;;;;;9.55;5.82;;;7.30;99.90;;;;;;4248595;27;20443;-85
2022/09/29 06:48:13;;;;;;;8.02;5.05;;;6.80;99.90;;;;;;4230300;28;20043;-85
2022/09/29 06:50:14;;;;;;;10.05;5.57;;;6.80;99.90;;;;;;4247991;27;20102;-85
2022/09/29 06:52:15;;;;;;;11.98;6.10;;;6.90;99.90;;;;;;4248614;27;20061;-85
2022/09/29 06:54:20;;;;;;;14.85;7.93;;;6.90;99.90;;;;;;4247733;27;20043;-86
2022/09/29 06:56:21;;;;;;;11.85;6.18;;;6.70;99.90;;;;;;4230372;28;20028;-85
2022/09/29 06:58:22;;;;;;;13.43;7.65;;;7.80;99.90;;;;;;4248073;27;20031;-85
2022/09/29 07:00:23;;;;;;;13.18;7.50;;;7.00;99.90;;;;;;4248419;28;20080;-85
2022/09/29 07:02:24;;;;;;;14.60;7.75;;;7.10;99.90;;;;;;4238224;28;20119;-85
2022/09/29 07:04:25;;;;;;;14.07;8.07;;;7.10;99.90;;;;;;4231167;28;20484;-85
2022/09/29 07:06:26;;;;;;;14.73;8.25;;;7.10;99.90;;;;;;4213947;28;20036;-83
2022/09/29 07:08:27;;;;;;;14.93;9.02;;;7.10;99.90;;;;;;4243897;28;20111;-84
2022/09/29 07:10:28;;;;;;;15.38;8.85;;;7.20;99.90;;;;;;4248664;28;20054;-85
2022/09/29 07:12:30;;;;;;;14.02;8.68;;;7.30;99.90;;;;;;4230514;28;20055;-85
2022/09/29 07:14:31;;;;;;;14.73;9.13;;;7.30;99.90;;;;;;4248166;28;20047;-85
2022/09/29 07:16:32;;;;;;;16.98;9.50;;;7.30;99.90;;;;;;4248048;28;20045;-86
2022/09/29 07:18:37;;;;;;;16.70;9.77;;;7.40;99.90;;;;;;4248255;28;20043;-85
2022/09/29 07:20:39;;;;;;;18.98;10.23;;;7.90;99.90;;;;;;4217739;28;20040;-86
2022/09/29 07:22:40;;;;;;;17.35;9.85;;;7.50;99.90;;;;;;4231815;28;20051;-85
2022/09/29 07:24:42;;;;;;;20.50;11.15;;;7.60;99.90;;;;;;4230971;28;20090;-85
2022/09/29 07:26:43;;;;;;;23.45;9.73;;;7.70;99.90;;;;;;4230573;28;20075;-84
2022/09/29 07:28:45;;;;;;;18.08;10.75;;;7.80;99.90;;;;;;4231331;28;20480;-84
2022/09/29 07:30:46;;;;;;;20.38;11.50;;;7.80;99.90;;;;;;4230863;28;20475;-85
2022/09/29 07:32:47;;;;;;;23.02;10.70;;;7.90;99.90;;;;;;4212939;28;20047;-85
2022/09/29 07:34:47;;;;;;;24.20;11.38;;;8.00;99.90;;;;;;4231403;28;20075;-85
2022/09/29 07:36:49;;;;;;;22.33;11.20;;;8.10;99.90;;;;;;4231554;28;20441;-85
2022/09/29 07:38:50;;;;;;;27.55;12.77;;;8.20;99.90;;;;;;4214285;28;20052;-83
2022/09/29 07:40:51;;;;;;;26.95;13.65;;;8.40;99.90;;;;;;4233685;27;20040;-84
2022/09/29 07:42:52;;;;;;;21.17;12.20;;;8.90;99.90;;;;;;4251567;27;20118;-84
2022/09/29 07:44:53;;;;;;;16.88;10.30;;;9.70;99.90;;;;;;4215863;28;20090;-85
2022/09/29 07:46:54;;;;;;;16.63;9.52;;;10.50;99.90;;;;;;4245552;27;20039;-85
2022/09/29 07:48:55;;;;;;;17.58;10.23;;;11.20;99.90;;;;;;4216774;28;20044;-84
2022/09/29 07:51:09;;;;;;;16.08;9.75;;;11.70;99.90;;;;;;4215327;28;20060;-85
2022/09/29 07:53:10;;;;;;;13.73;8.50;;;12.40;99.90;;;;;;4234201;28;20052;-85
2022/09/29 07:55:11;;;;;;;14.68;9.05;;;13.00;99.90;;;;;;4233875;28;20046;-85
2022/09/29 07:57:12;;;;;;;14.73;8.35;;;13.60;99.90;;;;;;4234379;28;20039;-83
2022/09/29 07:59:13;;;;;;;15.95;8.13;;;14.00;99.90;;;;;;4233400;28;20047;-84
2022/09/29 08:01:14;;;;;;;12.43;7.85;;;14.40;99.90;;;;;;4234144;28;20043;-84
2022/09/29 08:03:15;;;;;;;12.95;7.25;;;14.50;99.90;;;;;;4233978;28;20448;-84
2022/09/29 08:05:16;;;;;;;13.43;7.57;;;14.90;99.90;;;;;;4234145;28;20093;-84
2022/09/29 08:07:17;;;;;;;12.32;7.00;;;15.10;99.90;;;;;;4234450;28;20361;-85
2022/09/29 08:09:18;;;;;;;15.60;8.20;;;15.30;99.90;;;;;;4216773;28;20536;-84
2022/09/29 08:11:20;;;;;;;13.00;7.80;;;15.50;99.90;;;;;;4235575;28;20067;-84
2022/09/29 08:13:21;;;;;;;14.15;8.00;;;15.50;99.90;;;;;;4234572;28;20047;-85
2022/09/29 08:15:22;;;;;;;12.15;7.00;;;15.60;99.90;;;;;;4234677;28;20547;-85
2022/09/29 08:17:23;;;;;;;11.60;7.35;;;15.90;99.90;;;;;;4234448;28;20046;-86
2022/09/29 08:19:25;;;;;;;17.92;9.00;;;16.20;99.70;;;;;;4233655;28;20048;-85
2022/09/29 08:21:27;;;;;;;13.13;7.78;;;16.40;99.40;;;;;;4234050;28;20058;-86
2022/09/29 08:23:28;;;;;;;12.93;7.60;;;16.60;99.60;;;;;;4234175;28;20044;-85
2022/09/29 08:25:29;;;;;;;12.35;6.90;;;17.00;99.20;;;;;;4237916;27;20065;-85
2022/09/29 08:27:29;;;;;;;11.73;8.00;;;17.40;99.20;;;;;;4249725;27;20047;-85
2022/09/29 08:29:30;;;;;;;11.68;7.53;;;17.50;98.60;;;;;;4249737;27;20513;-84
2022/09/29 08:31:32;;;;;;;10.50;6.75;;;17.60;98.70;;;;;;4250634;27;20379;-85
2022/09/29 08:33:34;;;;;;;13.32;7.82;;;17.60;98.40;;;;;;4250249;27;20045;-85
2022/09/29 08:35:35;;;;;;;12.43;7.78;;;18.00;98.30;;;;;;4244058;27;20467;-85
2022/09/29 08:37:35;;;;;;;10.40;6.72;;;18.30;98.10;;;;;;4214803;28;20044;-84
2022/09/29 08:39:36;;;;;;;9.68;6.25;;;18.20;97.80;;;;;;4233319;28;20403;-85
2022/09/29 08:42:01;;;;;;;11.32;6.28;;;18.20;97.70;;;;;;4232489;28;20035;-84
2022/09/29 08:44:32;;;;;;;10.35;6.68;;;18.40;97.40;;;;;;4234174;27;20055;-84
2022/09/29 08:46:38;;;;;;;10.93;6.22;;;18.70;96.80;;;;;;4249824;27;20051;-84
2022/09/29 08:48:43;;;;;;;14.23;6.65;;;18.90;97.10;;;;;;4231995;28;20571;-85
2022/09/29 08:50:48;;;;;;;11.65;7.07;;;19.40;97.00;;;;;;4249670;27;20055;-84
2022/09/29 08:52:58;;;;;;;8.05;5.18;;;19.90;96.20;;;;;;4250289;27;20043;-85
2022/09/29 08:55:21;;;;;;;14.73;5.82;;;20.30;95.50;;;;;;4249680;27;20043;-84
2022/09/29 08:57:22;;;;;;;10.63;5.40;;;20.10;93.40;;;;;;4250050;27;20109;-83
2022/09/29 08:59:24;;;;;;;8.63;5.25;;;20.20;95.10;;;;;;4250191;27;20038;-82
2022/09/29 09:01:40;;;;;;;7.93;5.10;;;20.30;94.70;;;;;;4250327;27;20088;-82
2022/09/29 09:03:44;;;;;;;8.32;5.20;;;20.30;93.90;;;;;;4250224;27;20039;-83
2022/09/29 09:06:09;;;;;;;7.30;4.97;;;20.50;94.40;;;;;;4250032;27;20079;-83
2022/09/29 09:08:37;;;;;;;6.63;4.45;;;20.80;93.70;;;;;;4250124;27;20047;-83
2022/09/29 09:10:46;;;;;;;6.07;3.80;;;21.20;92.30;;;;;;4250160;27;20495;-83
2022/09/29 09:12:55;;;;;;;;;;;21.20;92.80;;;;;;4232709;28;20107;-83
2022/09/29 09:15:21;;;;;;;8.48;4.35;;;21.30;89.40;;;;;;4250011;27;19919;-83
2022/09/29 09:17:37;;;;;;;8.30;4.18;;;21.50;91.90;;;;;;4203965;28;20052;-83
2022/09/29 09:19:41;;;;;;;7.80;4.30;;;21.50;91.80;;;;;;4230952;28;20048;-84
2022/09/29 09:21:45;;;;;;;9.50;3.65;;;21.80;91.50;;;;;;4250030;27;20047;-83
2022/09/29 09:24:01;;;;;;;10.27;3.70;;;22.30;91.20;;;;;;4250055;27;20039;-83
2022/09/29 09:26:03;;;;;;;15.90;4.38;;;22.70;90.20;;;;;;4249691;27;20066;-83
2022/09/29 09:28:16;;;;;;;8.68;3.20;;;23.00;90.40;;;;;;4249733;27;20086;-83
2022/09/29 09:30:29;;;;;;;6.95;3.40;;;23.30;89.40;;;;;;4249561;27;20092;-84
2022/09/29 09:32:36;;;;;;;8.52;2.95;;;23.40;89.10;;;;;;4250187;27;20039;-83
2022/09/29 09:35:15;;;;;;;6.85;2.85;;;23.40;88.70;;;;;;4214578;28;20099;-84
2022/09/29 09:37:27;;;;;;;11.10;3.35;;;23.30;86.10;;;;;;4201157;28;20060;-83
2022/09/29 09:39:47;;;;;;;8.88;2.60;;;23.20;87.90;;;;;;4233087;28;20048;-84
2022/09/29 09:41:53;;;;;;;4.03;2.40;;;22.80;86.90;;;;;;4232057;28;20377;-84
2022/09/29 09:44:00;;;;;;;5.22;2.70;;;22.50;89.20;;;;;;4232521;28;20039;-83
2022/09/29 09:46:21;;;;;;;6.70;3.30;;;22.40;89.40;;;;;;4215002;28;20097;-83
2022/09/29 09:48:42;;;;;;;3.58;2.78;;;22.30;86.40;;;;;;4231839;28;20043;-84
2022/09/29 09:50:43;;;;;;;3.85;2.35;;;21.80;85.90;;;;;;4239163;27;20083;-84
2022/09/29 09:53:00;;;;;;;6.65;2.47;;;21.20;88.90;;;;;;4248306;27;20141;-84
2022/09/29 09:55:04;;;;;;;4.00;2.22;;;20.70;89.10;;;;;;4249005;27;20406;-83
2022/09/29 09:57:12;;;;;;;6.90;3.22;;;20.20;90.00;;;;;;4230528;28;20047;-83
2022/09/29 09:59:24;;;;;;;3.85;2.63;;;20.20;90.70;;;;;;4230720;28;20051;-83
2022/09/29 10:01:26;;;;;;;5.03;2.70;;;20.40;89.50;;;;;;4249238;27;20082;-83
2022/09/29 10:03:29;;;;;;;2.72;2.13;;;20.20;90.20;;;;;;4248488;27;20035;-83
2022/09/29 10:05:37;;;;;;;3.80;2.53;;;20.20;88.80;;;;;;4230632;28;20130;-83
2022/09/29 10:07:38;;;;;;;4.88;2.80;;;20.30;89.10;;;;;;4249315;27;20049;-83
2022/09/29 10:09:39;;;;;;;4.03;2.03;;;20.40;90.10;;;;;;4229619;28;20279;-83
2022/09/29 10:11:42;;;;;;;3.25;1.10;;;20.40;90.00;;;;;;4230990;28;20047;-83
2022/09/29 10:13:45;;;;;;;12.30;1.65;;;20.40;88.20;;;;;;4249209;27;20046;-83
2022/09/29 10:16:15;;;;;;;5.00;1.70;;;20.20;88.10;;;;;;4248664;27;20131;-83
2022/09/29 10:18:30;;;;;;;2.90;1.50;;;19.90;86.00;;;;;;4247970;27;20099;-83
2022/09/29 10:20:34;;;;;;;6.90;1.65;;;20.10;86.40;;;;;;4229891;28;20134;-83
2022/09/29 10:22:35;;;;;;;2.20;1.25;;;20.00;87.70;;;;;;4230048;28;20364;-83
2022/09/29 10:24:36;;;;;;;1.50;1.20;;;20.30;88.50;;;;;;4248262;27;20126;-83
2022/09/29 10:26:42;;;;;;;3.67;1.27;;;20.60;88.10;;;;;;4248098;27;20130;-83
2022/09/29 10:28:49;;;;;;;2.17;1.48;;;20.80;86.80;;;;;;4248384;27;20043;-83
2022/09/29 10:30:50;;;;;;;2.65;1.45;;;21.00;86.40;;;;;;4246203;27;20403;-84
2022/09/29 10:32:58;;;;;;;2.17;1.20;;;21.20;85.50;;;;;;4245757;27;20039;-85
2022/09/29 10:35:18;;;;;;;2.47;0.93;;;21.30;83.10;;;;;;4249115;27;20069;-83
2022/09/29 10:37:34;;;;;;;1.88;0.80;;;21.60;81.10;;;;;;4247530;27;20160;-84
2022/09/29 10:39:46;;;;;;;3.72;1.30;;;22.00;82.60;;;;;;4248234;27;20524;-85
2022/09/29 10:41:52;;;;;;;0.80;0.70;;;22.00;81.10;;;;;;4247817;27;20042;-82
2022/09/29 10:43:53;;;;;;;0.93;0.70;;;21.70;82.30;;;;;;4248329;27;20047;-82
2022/09/29 10:45:57;;;;;;;2.17;0.93;;;21.70;82.20;;;;;;4247379;27;20043;-82
2022/09/29 10:47:57;;;;;;;2.92;0.77;;;21.80;81.40;;;;;;4247938;27;20043;-83
2022/09/29 10:50:07;;;;;;;1.55;0.80;;;21.50;79.90;;;;;;4246064;27;20376;-82
2022/09/29 10:52:35;;;;;;;5.85;1.10;;;21.30;75.30;;;;;;4247521;27;20089;-82
2022/09/29 10:54:51;;;;;;;1.48;0.68;;;21.20;76.70;;;;;;4243535;27;20051;-82
2022/09/29 10:56:54;;;;;;;3.03;1.00;;;21.50;79.80;;;;;;4247624;27;20038;-83
2022/09/29 10:59:00;;;;;;;5.65;1.15;;;21.90;78.90;;;;;;4247546;27;20147;-82